CHD weather

Chandler Municipal Airport
Chandler, Arizona, United States

Public forecast

Using degrees Fahrenheit for public forecast. Weather courtesy of forecast.io.

Current aviation weather report (METAR) for Chandler Municipal Airport

Retrieved 2020/03/30 15:47 UTC (38 minutes ago):

KCHD 301547Z 00000KT 10SM SKC 15/01 A3016

Closest aviation forecast (TAF) to Chandler Municipal Airport

Closest forecast is Phoenix-Mesa-Gateway Airport, 8.2 nm (15.1 km) ENE. Retrieved 2020/03/30 12:22 UTC (4 hours ago):

TAF KIWA 301120Z 3012/3112 12006KT P6SM SKC FM301800 30008KT P6SM SKC FM310400 12005KT P6SM FEW250